sensor_id;sensor_type;location;lat;lon;timestamp;P1;durP1;ratioP1;P2;durP2;ratioP2
9884;SDS011;4981;50.966;4.842;2023-03-14T00:00:08;2.73;;;1.00;;
9884;SDS011;4981;50.966;4.842;2023-03-14T00:02:36;6.23;;;1.40;;
9884;SDS011;4981;50.966;4.842;2023-03-14T00:05:04;3.07;;;0.90;;
9884;SDS011;4981;50.966;4.842;2023-03-14T00:07:33;6.03;;;1.23;;
9884;SDS011;4981;50.966;4.842;2023-03-14T00:10:04;4.43;;;1.10;;
9884;SDS011;4981;50.966;4.842;2023-03-14T00:12:32;5.10;;;1.40;;
9884;SDS011;4981;50.966;4.842;2023-03-14T00:15:00;7.53;;;1.50;;
9884;SDS011;4981;50.966;4.842;2023-03-14T00:17:28;3.70;;;1.40;;
9884;SDS011;4981;50.966;4.842;2023-03-14T00:19:56;4.73;;;1.10;;
9884;SDS011;4981;50.966;4.842;2023-03-14T00:22:29;5.43;;;1.17;;
9884;SDS011;4981;50.966;4.842;2023-03-14T00:24:57;5.77;;;1.10;;
9884;SDS011;4981;50.966;4.842;2023-03-14T00:27:26;2.67;;;1.03;;
9884;SDS011;4981;50.966;4.842;2023-03-14T00:29:54;4.67;;;1.00;;
9884;SDS011;4981;50.966;4.842;2023-03-14T00:32:21;5.07;;;1.40;;
9884;SDS011;4981;50.966;4.842;2023-03-14T00:34:49;5.73;;;1.30;;
9884;SDS011;4981;50.966;4.842;2023-03-14T00:37:17;5.97;;;1.43;;
9884;SDS011;4981;50.966;4.842;2023-03-14T00:39:45;4.40;;;1.00;;
9884;SDS011;4981;50.966;4.842;2023-03-14T00:42:13;5.43;;;1.47;;
9884;SDS011;4981;50.966;4.842;2023-03-14T00:44:42;5.33;;;1.27;;
9884;SDS011;4981;50.966;4.842;2023-03-14T00:47:10;6.63;;;1.47;;
9884;SDS011;4981;50.966;4.842;2023-03-14T00:49:38;4.80;;;1.40;;
9884;SDS011;4981;50.966;4.842;2023-03-14T00:52:08;6.13;;;1.60;;
9884;SDS011;4981;50.966;4.842;2023-03-14T00:54:35;9.73;;;2.10;;
9884;SDS011;4981;50.966;4.842;2023-03-14T00:57:03;10.10;;;1.90;;
9884;SDS011;4981;50.966;4.842;2023-03-14T00:59:31;7.90;;;2.00;;
9884;SDS011;4981;50.966;4.842;2023-03-14T01:02:00;4.57;;;1.50;;
9884;SDS011;4981;50.966;4.842;2023-03-14T01:04:28;6.40;;;1.63;;
9884;SDS011;4981;50.966;4.842;2023-03-14T01:06:56;6.13;;;1.33;;
9884;SDS011;4981;50.966;4.842;2023-03-14T01:09:24;6.07;;;1.43;;
9884;SDS011;4981;50.966;4.842;2023-03-14T01:11:52;6.10;;;1.63;;
9884;SDS011;4981;50.966;4.842;2023-03-14T01:14:20;6.30;;;1.77;;
9884;SDS011;4981;50.966;4.842;2023-03-14T01:16:47;6.63;;;1.67;;
9884;SDS011;4981;50.966;4.842;2023-03-14T01:19:17;12.87;;;1.80;;
9884;SDS011;4981;50.966;4.842;2023-03-14T01:21:45;6.43;;;1.57;;
9884;SDS011;4981;50.966;4.842;2023-03-14T01:24:12;7.40;;;1.73;;
9884;SDS011;4981;50.966;4.842;2023-03-14T01:26:41;7.30;;;1.53;;
9884;SDS011;4981;50.966;4.842;2023-03-14T01:29:08;9.13;;;1.90;;
9884;SDS011;4981;50.966;4.842;2023-03-14T01:31:36;6.23;;;1.70;;
9884;SDS011;4981;50.966;4.842;2023-03-14T01:34:03;5.27;;;1.30;;
9884;SDS011;4981;50.966;4.842;2023-03-14T01:36:33;9.30;;;2.27;;
9884;SDS011;4981;50.966;4.842;2023-03-14T01:39:01;8.97;;;2.00;;
9884;SDS011;4981;50.966;4.842;2023-03-14T01:41:31;12.90;;;2.03;;
9884;SDS011;4981;50.966;4.842;2023-03-14T01:43:59;5.57;;;1.43;;
9884;SDS011;4981;50.966;4.842;2023-03-14T01:46:32;5.77;;;1.60;;
9884;SDS011;4981;50.966;4.842;2023-03-14T01:49:03;7.47;;;2.20;;
9884;SDS011;4981;50.966;4.842;2023-03-14T01:51:36;9.93;;;2.10;;
9884;SDS011;4981;50.966;4.842;2023-03-14T01:54:08;9.57;;;2.30;;
9884;SDS011;4981;50.966;4.842;2023-03-14T01:56:37;8.80;;;1.93;;
9884;SDS011;4981;50.966;4.842;2023-03-14T01:59:06;6.97;;;1.77;;
9884;SDS011;4981;50.966;4.842;2023-03-14T02:01:35;6.80;;;2.10;;
9884;SDS011;4981;50.966;4.842;2023-03-14T02:04:03;5.63;;;1.47;;
9884;SDS011;4981;50.966;4.842;2023-03-14T02:06:33;11.47;;;2.00;;
9884;SDS011;4981;50.966;4.842;2023-03-14T02:09:04;5.77;;;1.57;;
9884;SDS011;4981;50.966;4.842;2023-03-14T02:11:31;8.13;;;1.67;;
9884;SDS011;4981;50.966;4.842;2023-03-14T02:14:00;6.03;;;1.37;;
9884;SDS011;4981;50.966;4.842;2023-03-14T02:16:28;6.97;;;1.73;;
9884;SDS011;4981;50.966;4.842;2023-03-14T02:18:56;9.00;;;1.87;;
9884;SDS011;4981;50.966;4.842;2023-03-14T02:21:26;6.17;;;1.53;;
9884;SDS011;4981;50.966;4.842;2023-03-14T02:23:59;7.63;;;1.60;;
9884;SDS011;4981;50.966;4.842;2023-03-14T02:26:31;5.33;;;1.50;;
9884;SDS011;4981;50.966;4.842;2023-03-14T02:29:03;5.60;;;1.30;;
9884;SDS011;4981;50.966;4.842;2023-03-14T02:31:31;7.13;;;0.93;;
9884;SDS011;4981;50.966;4.842;2023-03-14T02:34:00;3.83;;;0.87;;
9884;SDS011;4981;50.966;4.842;2023-03-14T02:36:28;5.57;;;1.00;;
9884;SDS011;4981;50.966;4.842;2023-03-14T02:38:58;4.23;;;1.00;;
9884;SDS011;4981;50.966;4.842;2023-03-14T02:41:28;7.17;;;0.93;;
9884;SDS011;4981;50.966;4.842;2023-03-14T02:43:56;5.83;;;1.20;;
9884;SDS011;4981;50.966;4.842;2023-03-14T02:46:26;2.37;;;0.70;;
9884;SDS011;4981;50.966;4.842;2023-03-14T02:48:54;4.43;;;1.00;;
9884;SDS011;4981;50.966;4.842;2023-03-14T02:51:24;3.47;;;0.77;;
9884;SDS011;4981;50.966;4.842;2023-03-14T02:53:53;6.37;;;1.07;;
9884;SDS011;4981;50.966;4.842;2023-03-14T02:56:21;3.67;;;0.80;;
9884;SDS011;4981;50.966;4.842;2023-03-14T02:58:49;4.13;;;0.70;;
9884;SDS011;4981;50.966;4.842;2023-03-14T03:01:17;4.90;;;0.83;;
9884;SDS011;4981;50.966;4.842;2023-03-14T03:03:49;5.77;;;0.93;;
9884;SDS011;4981;50.966;4.842;2023-03-14T03:06:17;6.80;;;0.73;;
9884;SDS011;4981;50.966;4.842;2023-03-14T03:08:45;4.47;;;0.90;;
9884;SDS011;4981;50.966;4.842;2023-03-14T03:11:12;3.67;;;1.00;;
9884;SDS011;4981;50.966;4.842;2023-03-14T03:13:40;4.90;;;0.77;;
9884;SDS011;4981;50.966;4.842;2023-03-14T03:16:08;4.03;;;0.80;;
9884;SDS011;4981;50.966;4.842;2023-03-14T03:18:38;5.50;;;1.07;;
9884;SDS011;4981;50.966;4.842;2023-03-14T03:21:08;4.63;;;0.80;;
9884;SDS011;4981;50.966;4.842;2023-03-14T03:23:36;2.57;;;0.97;;
9884;SDS011;4981;50.966;4.842;2023-03-14T03:26:03;2.07;;;0.77;;
9884;SDS011;4981;50.966;4.842;2023-03-14T03:28:32;7.40;;;1.20;;
9884;SDS011;4981;50.966;4.842;2023-03-14T03:31:06;5.07;;;1.00;;
9884;SDS011;4981;50.966;4.842;2023-03-14T03:33:33;5.47;;;1.20;;
9884;SDS011;4981;50.966;4.842;2023-03-14T03:36:01;5.87;;;1.20;;
9884;SDS011;4981;50.966;4.842;2023-03-14T03:38:32;3.77;;;1.30;;
9884;SDS011;4981;50.966;4.842;2023-03-14T03:41:01;7.30;;;1.43;;
9884;SDS011;4981;50.966;4.842;2023-03-14T03:43:30;6.40;;;1.07;;
9884;SDS011;4981;50.966;4.842;2023-03-14T03:45:58;4.23;;;0.93;;
9884;SDS011;4981;50.966;4.842;2023-03-14T03:48:25;6.93;;;1.10;;
9884;SDS011;4981;50.966;4.842;2023-03-14T03:50:53;6.70;;;1.30;;
9884;SDS011;4981;50.966;4.842;2023-03-14T03:53:20;6.63;;;1.90;;
9884;SDS011;4981;50.966;4.842;2023-03-14T03:55:50;6.20;;;1.77;;
9884;SDS011;4981;50.966;4.842;2023-03-14T03:58:18;8.97;;;2.23;;
9884;SDS011;4981;50.966;4.842;2023-03-14T04:00:46;7.63;;;3.20;;
9884;SDS011;4981;50.966;4.842;2023-03-14T04:03:13;9.77;;;3.57;;
9884;SDS011;4981;50.966;4.842;2023-03-14T04:05:41;12.73;;;2.97;;
9884;SDS011;4981;50.966;4.842;2023-03-14T04:08:09;11.00;;;3.00;;
9884;SDS011;4981;50.966;4.842;2023-03-14T04:10:37;9.33;;;3.03;;
9884;SDS011;4981;50.966;4.842;2023-03-14T04:13:06;7.63;;;2.03;;
9884;SDS011;4981;50.966;4.842;2023-03-14T04:15:34;9.30;;;2.20;;
9884;SDS011;4981;50.966;4.842;2023-03-14T04:18:02;8.43;;;3.13;;
9884;SDS011;4981;50.966;4.842;2023-03-14T04:20:29;7.70;;;2.33;;
9884;SDS011;4981;50.966;4.842;2023-03-14T04:22:57;8.13;;;1.60;;
9884;SDS011;4981;50.966;4.842;2023-03-14T04:25:25;6.17;;;2.10;;
9884;SDS011;4981;50.966;4.842;2023-03-14T04:27:52;8.67;;;1.77;;
9884;SDS011;4981;50.966;4.842;2023-03-14T04:30:22;8.50;;;2.60;;
9884;SDS011;4981;50.966;4.842;2023-03-14T04:32:50;4.27;;;1.37;;
9884;SDS011;4981;50.966;4.842;2023-03-14T04:35:18;9.10;;;2.27;;
9884;SDS011;4981;50.966;4.842;2023-03-14T04:37:46;5.43;;;1.30;;
9884;SDS011;4981;50.966;4.842;2023-03-14T04:40:14;7.83;;;1.47;;
9884;SDS011;4981;50.966;4.842;2023-03-14T04:42:42;5.43;;;1.47;;
9884;SDS011;4981;50.966;4.842;2023-03-14T04:45:09;7.07;;;1.50;;
9884;SDS011;4981;50.966;4.842;2023-03-14T04:47:39;9.30;;;1.73;;
9884;SDS011;4981;50.966;4.842;2023-03-14T04:50:07;6.33;;;1.37;;
9884;SDS011;4981;50.966;4.842;2023-03-14T04:52:35;5.20;;;1.80;;
9884;SDS011;4981;50.966;4.842;2023-03-14T04:55:03;3.47;;;1.20;;
9884;SDS011;4981;50.966;4.842;2023-03-14T04:57:31;3.90;;;1.37;;
9884;SDS011;4981;50.966;4.842;2023-03-14T04:59:59;7.20;;;2.23;;
9884;SDS011;4981;50.966;4.842;2023-03-14T05:02:27;5.03;;;1.23;;
9884;SDS011;4981;50.966;4.842;2023-03-14T05:04:56;7.13;;;1.50;;
9884;SDS011;4981;50.966;4.842;2023-03-14T05:07:24;5.70;;;1.10;;
9884;SDS011;4981;50.966;4.842;2023-03-14T05:09:52;3.27;;;1.00;;
9884;SDS011;4981;50.966;4.842;2023-03-14T05:12:20;4.30;;;1.20;;
9884;SDS011;4981;50.966;4.842;2023-03-14T05:14:48;4.77;;;1.10;;
9884;SDS011;4981;50.966;4.842;2023-03-14T05:17:15;5.10;;;1.00;;
9884;SDS011;4981;50.966;4.842;2023-03-14T05:19:44;4.20;;;1.33;;
9884;SDS011;4981;50.966;4.842;2023-03-14T05:22:13;3.57;;;1.07;;
9884;SDS011;4981;50.966;4.842;2023-03-14T05:24:41;5.00;;;1.37;;
9884;SDS011;4981;50.966;4.842;2023-03-14T05:27:08;4.47;;;1.20;;
9884;SDS011;4981;50.966;4.842;2023-03-14T05:29:36;8.10;;;1.40;;
9884;SDS011;4981;50.966;4.842;2023-03-14T05:32:04;4.40;;;1.10;;
9884;SDS011;4981;50.966;4.842;2023-03-14T05:34:32;3.73;;;1.30;;
9884;SDS011;4981;50.966;4.842;2023-03-14T05:37:00;4.47;;;1.17;;
9884;SDS011;4981;50.966;4.842;2023-03-14T05:39:29;3.97;;;1.50;;
9884;SDS011;4981;50.966;4.842;2023-03-14T05:41:57;3.87;;;1.50;;
9884;SDS011;4981;50.966;4.842;2023-03-14T05:44:25;2.73;;;0.97;;
9884;SDS011;4981;50.966;4.842;2023-03-14T05:46:53;3.60;;;1.27;;
9884;SDS011;4981;50.966;4.842;2023-03-14T05:49:20;3.07;;;1.60;;
9884;SDS011;4981;50.966;4.842;2023-03-14T05:51:48;2.43;;;1.30;;
9884;SDS011;4981;50.966;4.842;2023-03-14T05:54:16;3.63;;;1.70;;
9884;SDS011;4981;50.966;4.842;2023-03-14T05:56:46;3.87;;;1.50;;
9884;SDS011;4981;50.966;4.842;2023-03-14T05:59:14;3.43;;;1.57;;
9884;SDS011;4981;50.966;4.842;2023-03-14T06:01:41;4.13;;;1.60;;
9884;SDS011;4981;50.966;4.842;2023-03-14T06:04:09;4.10;;;1.70;;
9884;SDS011;4981;50.966;4.842;2023-03-14T06:06:38;3.27;;;1.50;;
9884;SDS011;4981;50.966;4.842;2023-03-14T06:09:06;1.77;;;1.50;;
9884;SDS011;4981;50.966;4.842;2023-03-14T06:11:33;5.13;;;1.70;;
9884;SDS011;4981;50.966;4.842;2023-03-14T06:14:03;6.83;;;1.80;;
9884;SDS011;4981;50.966;4.842;2023-03-14T06:16:30;3.63;;;1.70;;
9884;SDS011;4981;50.966;4.842;2023-03-14T06:18:58;2.73;;;1.60;;
9884;SDS011;4981;50.966;4.842;2023-03-14T06:21:26;3.90;;;1.80;;
9884;SDS011;4981;50.966;4.842;2023-03-14T06:23:54;4.60;;;1.50;;
9884;SDS011;4981;50.966;4.842;2023-03-14T06:26:22;3.17;;;1.73;;
9884;SDS011;4981;50.966;4.842;2023-03-14T06:28:49;3.40;;;1.93;;
9884;SDS011;4981;50.966;4.842;2023-03-14T06:31:20;4.67;;;1.97;;
9884;SDS011;4981;50.966;4.842;2023-03-14T06:33:47;3.53;;;2.10;;
9884;SDS011;4981;50.966;4.842;2023-03-14T06:36:15;2.97;;;2.33;;
9884;SDS011;4981;50.966;4.842;2023-03-14T06:38:43;2.43;;;2.17;;
9884;SDS011;4981;50.966;4.842;2023-03-14T06:41:11;3.23;;;2.10;;
9884;SDS011;4981;50.966;4.842;2023-03-14T06:43:38;4.40;;;2.10;;
9884;SDS011;4981;50.966;4.842;2023-03-14T06:46:06;3.13;;;2.00;;
9884;SDS011;4981;50.966;4.842;2023-03-14T06:48:35;7.57;;;2.20;;
9884;SDS011;4981;50.966;4.842;2023-03-14T06:51:03;3.83;;;1.60;;
9884;SDS011;4981;50.966;4.842;2023-03-14T06:53:31;9.40;;;1.97;;
9884;SDS011;4981;50.966;4.842;2023-03-14T06:55:59;8.13;;;1.90;;
9884;SDS011;4981;50.966;4.842;2023-03-14T06:58:26;16.33;;;2.33;;
9884;SDS011;4981;50.966;4.842;2023-03-14T07:00:54;9.33;;;2.00;;
9884;SDS011;4981;50.966;4.842;2023-03-14T07:03:22;5.43;;;2.20;;
9884;SDS011;4981;50.966;4.842;2023-03-14T07:05:52;5.30;;;2.00;;
9884;SDS011;4981;50.966;4.842;2023-03-14T07:08:19;4.10;;;1.97;;
9884;SDS011;4981;50.966;4.842;2023-03-14T07:10:47;3.63;;;1.80;;
9884;SDS011;4981;50.966;4.842;2023-03-14T07:13:15;4.63;;;2.20;;
9884;SDS011;4981;50.966;4.842;2023-03-14T07:15:43;7.00;;;2.20;;
9884;SDS011;4981;50.966;4.842;2023-03-14T07:18:10;4.27;;;1.70;;
9884;SDS011;4981;50.966;4.842;2023-03-14T07:20:38;0.97;;;0.60;;
9884;SDS011;4981;50.966;4.842;2023-03-14T07:23:07;1.10;;;0.80;;
9884;SDS011;4981;50.966;4.842;2023-03-14T07:25:34;2.57;;;0.80;;
9884;SDS011;4981;50.966;4.842;2023-03-14T07:28:02;1.97;;;1.10;;
9884;SDS011;4981;50.966;4.842;2023-03-14T07:30:30;1.87;;;1.40;;
9884;SDS011;4981;50.966;4.842;2023-03-14T07:32:57;0.00;;;0.00;;
9884;SDS011;4981;50.966;4.842;2023-03-14T07:35:25;0.10;;;0.10;;
9884;SDS011;4981;50.966;4.842;2023-03-14T07:37:52;0.00;;;0.00;;
9884;SDS011;4981;50.966;4.842;2023-03-14T07:40:21;0.00;;;0.00;;
9884;SDS011;4981;50.966;4.842;2023-03-14T07:42:49;13.67;;;3.83;;
9884;SDS011;4981;50.966;4.842;2023-03-14T07:45:20;18.40;;;4.67;;
9884;SDS011;4981;50.966;4.842;2023-03-14T07:47:47;12.03;;;4.13;;
9884;SDS011;4981;50.966;4.842;2023-03-14T07:50:15;7.30;;;3.90;;
9884;SDS011;4981;50.966;4.842;2023-03-14T07:52:44;5.03;;;2.20;;
9884;SDS011;4981;50.966;4.842;2023-03-14T07:55:11;7.77;;;2.33;;
9884;SDS011;4981;50.966;4.842;2023-03-14T07:57:40;3.60;;;1.87;;
9884;SDS011;4981;50.966;4.842;2023-03-14T08:00:08;4.67;;;2.00;;
9884;SDS011;4981;50.966;4.842;2023-03-14T08:02:36;5.33;;;2.30;;
9884;SDS011;4981;50.966;4.842;2023-03-14T08:05:04;10.67;;;2.60;;
9884;SDS011;4981;50.966;4.842;2023-03-14T08:07:32;10.47;;;3.43;;
9884;SDS011;4981;50.966;4.842;2023-03-14T08:09:59;8.83;;;3.73;;
9884;SDS011;4981;50.966;4.842;2023-03-14T08:12:27;21.10;;;4.83;;
9884;SDS011;4981;50.966;4.842;2023-03-14T08:14:56;9.80;;;3.80;;
9884;SDS011;4981;50.966;4.842;2023-03-14T08:17:24;9.40;;;4.43;;
9884;SDS011;4981;50.966;4.842;2023-03-14T08:19:52;10.63;;;4.43;;
9884;SDS011;4981;50.966;4.842;2023-03-14T08:22:19;10.53;;;3.87;;
9884;SDS011;4981;50.966;4.842;2023-03-14T08:24:47;7.33;;;3.87;;
9884;SDS011;4981;50.966;4.842;2023-03-14T08:27:15;10.13;;;4.20;;
9884;SDS011;4981;50.966;4.842;2023-03-14T08:29:42;11.13;;;4.20;;
9884;SDS011;4981;50.966;4.842;2023-03-14T08:32:12;10.60;;;4.07;;
9884;SDS011;4981;50.966;4.842;2023-03-14T08:34:39;12.47;;;4.70;;
9884;SDS011;4981;50.966;4.842;2023-03-14T08:37:07;7.17;;;4.00;;
9884;SDS011;4981;50.966;4.842;2023-03-14T08:39:35;9.87;;;3.60;;
9884;SDS011;4981;50.966;4.842;2023-03-14T08:42:02;8.93;;;3.97;;
9884;SDS011;4981;50.966;4.842;2023-03-14T08:44:30;9.17;;;3.30;;
9884;SDS011;4981;50.966;4.842;2023-03-14T08:46:58;8.30;;;3.53;;
9884;SDS011;4981;50.966;4.842;2023-03-14T08:49:27;7.20;;;2.57;;
9884;SDS011;4981;50.966;4.842;2023-03-14T08:51:54;5.60;;;2.27;;
9884;SDS011;4981;50.966;4.842;2023-03-14T08:54:22;10.00;;;2.80;;
9884;SDS011;4981;50.966;4.842;2023-03-14T08:56:50;5.90;;;2.83;;
9884;SDS011;4981;50.966;4.842;2023-03-14T08:59:18;5.20;;;2.53;;
9884;SDS011;4981;50.966;4.842;2023-03-14T09:01:46;4.93;;;2.57;;
9884;SDS011;4981;50.966;4.842;2023-03-14T09:04:13;6.23;;;2.10;;
9884;SDS011;4981;50.966;4.842;2023-03-14T09:06:42;4.67;;;1.87;;
9884;SDS011;4981;50.966;4.842;2023-03-14T09:09:10;11.20;;;8.03;;
9884;SDS011;4981;50.966;4.842;2023-03-14T09:11:38;5.30;;;2.00;;
9884;SDS011;4981;50.966;4.842;2023-03-14T09:14:06;6.77;;;1.70;;
9884;SDS011;4981;50.966;4.842;2023-03-14T09:16:33;4.77;;;1.60;;
9884;SDS011;4981;50.966;4.842;2023-03-14T09:19:01;4.07;;;1.20;;
9884;SDS011;4981;50.966;4.842;2023-03-14T09:21:29;7.30;;;1.17;;
9884;SDS011;4981;50.966;4.842;2023-03-14T09:23:58;3.47;;;1.17;;
9884;SDS011;4981;50.966;4.842;2023-03-14T09:26:25;4.77;;;1.20;;
9884;SDS011;4981;50.966;4.842;2023-03-14T09:28:53;3.13;;;0.83;;
9884;SDS011;4981;50.966;4.842;2023-03-14T09:31:21;2.67;;;0.80;;
9884;SDS011;4981;50.966;4.842;2023-03-14T09:33:48;2.63;;;0.80;;
9884;SDS011;4981;50.966;4.842;2023-03-14T09:36:16;3.17;;;0.93;;
9884;SDS011;4981;50.966;4.842;2023-03-14T09:38:43;3.37;;;0.87;;
9884;SDS011;4981;50.966;4.842;2023-03-14T09:41:14;7.73;;;2.03;;
9884;SDS011;4981;50.966;4.842;2023-03-14T09:43:43;3.47;;;1.60;;
9884;SDS011;4981;50.966;4.842;2023-03-14T09:46:12;3.93;;;1.60;;
9884;SDS011;4981;50.966;4.842;2023-03-14T09:48:40;6.90;;;1.53;;
9884;SDS011;4981;50.966;4.842;2023-03-14T09:51:11;7.63;;;1.60;;
9884;SDS011;4981;50.966;4.842;2023-03-14T09:53:40;4.63;;;1.70;;
9884;SDS011;4981;50.966;4.842;2023-03-14T09:56:10;4.70;;;1.70;;
9884;SDS011;4981;50.966;4.842;2023-03-14T09:58:41;5.43;;;2.30;;
9884;SDS011;4981;50.966;4.842;2023-03-14T10:01:09;4.33;;;2.20;;
9884;SDS011;4981;50.966;4.842;2023-03-14T10:03:38;4.73;;;2.00;;
9884;SDS011;4981;50.966;4.842;2023-03-14T10:06:09;5.00;;;1.53;;
9884;SDS011;4981;50.966;4.842;2023-03-14T10:08:39;1.00;;;0.10;;
9884;SDS011;4981;50.966;4.842;2023-03-14T10:11:09;0.00;;;0.00;;
9884;SDS011;4981;50.966;4.842;2023-03-14T10:13:39;4.50;;;2.23;;
9884;SDS011;4981;50.966;4.842;2023-03-14T10:16:15;3.10;;;2.50;;
9884;SDS011;4981;50.966;4.842;2023-03-14T10:18:46;3.30;;;1.37;;
9884;SDS011;4981;50.966;4.842;2023-03-14T10:21:17;7.93;;;4.43;;
9884;SDS011;4981;50.966;4.842;2023-03-14T10:23:45;3.83;;;1.90;;
9884;SDS011;4981;50.966;4.842;2023-03-14T10:26:13;5.53;;;2.87;;
9884;SDS011;4981;50.966;4.842;2023-03-14T10:28:43;5.53;;;5.00;;
9884;SDS011;4981;50.966;4.842;2023-03-14T10:31:11;7.87;;;6.07;;
9884;SDS011;4981;50.966;4.842;2023-03-14T10:33:40;10.73;;;8.07;;
9884;SDS011;4981;50.966;4.842;2023-03-14T10:36:15;12.27;;;7.00;;
9884;SDS011;4981;50.966;4.842;2023-03-14T10:38:44;10.97;;;7.07;;
9884;SDS011;4981;50.966;4.842;2023-03-14T10:41:16;12.00;;;7.27;;
9884;SDS011;4981;50.966;4.842;2023-03-14T10:43:44;11.97;;;7.70;;
9884;SDS011;4981;50.966;4.842;2023-03-14T10:46:13;14.20;;;6.77;;
9884;SDS011;4981;50.966;4.842;2023-03-14T10:48:43;8.30;;;6.13;;
9884;SDS011;4981;50.966;4.842;2023-03-14T10:51:18;9.07;;;5.43;;
9884;SDS011;4981;50.966;4.842;2023-03-14T10:53:46;6.60;;;4.53;;
9884;SDS011;4981;50.966;4.842;2023-03-14T10:56:15;4.63;;;3.60;;
9884;SDS011;4981;50.966;4.842;2023-03-14T10:58:43;5.00;;;2.80;;
9884;SDS011;4981;50.966;4.842;2023-03-14T11:01:22;4.13;;;2.00;;
9884;SDS011;4981;50.966;4.842;2023-03-14T11:03:56;3.10;;;2.20;;
9884;SDS011;4981;50.966;4.842;2023-03-14T11:06:26;2.20;;;2.00;;
9884;SDS011;4981;50.966;4.842;2023-03-14T11:08:57;4.80;;;2.67;;
9884;SDS011;4981;50.966;4.842;2023-03-14T11:11:30;3.33;;;2.20;;
9884;SDS011;4981;50.966;4.842;2023-03-14T11:14:01;4.57;;;2.80;;
9884;SDS011;4981;50.966;4.842;2023-03-14T11:16:34;6.37;;;2.27;;
9884;SDS011;4981;50.966;4.842;2023-03-14T11:19:15;5.40;;;2.13;;
9884;SDS011;4981;50.966;4.842;2023-03-14T11:21:49;4.33;;;1.30;;
9884;SDS011;4981;50.966;4.842;2023-03-14T11:24:24;2.80;;;1.67;;
9884;SDS011;4981;50.966;4.842;2023-03-14T11:26:56;2.33;;;1.40;;
9884;SDS011;4981;50.966;4.842;2023-03-14T11:29:28;3.43;;;1.53;;
9884;SDS011;4981;50.966;4.842;2023-03-14T11:31:58;2.13;;;1.43;;
9884;SDS011;4981;50.966;4.842;2023-03-14T11:34:32;4.77;;;1.60;;
9884;SDS011;4981;50.966;4.842;2023-03-14T11:37:04;2.67;;;1.60;;
9884;SDS011;4981;50.966;4.842;2023-03-14T11:39:34;3.70;;;1.80;;
9884;SDS011;4981;50.966;4.842;2023-03-14T11:42:04;3.50;;;1.57;;
9884;SDS011;4981;50.966;4.842;2023-03-14T11:44:32;4.93;;;3.77;;
9884;SDS011;4981;50.966;4.842;2023-03-14T11:47:02;2.97;;;2.20;;
9884;SDS011;4981;50.966;4.842;2023-03-14T11:49:34;4.30;;;1.90;;
9884;SDS011;4981;50.966;4.842;2023-03-14T11:52:05;6.23;;;2.13;;
9884;SDS011;4981;50.966;4.842;2023-03-14T11:54:34;6.03;;;2.10;;
9884;SDS011;4981;50.966;4.842;2023-03-14T11:57:10;6.07;;;2.73;;
9884;SDS011;4981;50.966;4.842;2023-03-14T11:59:41;6.93;;;2.20;;
9884;SDS011;4981;50.966;4.842;2023-03-14T12:02:13;3.63;;;2.23;;
9884;SDS011;4981;50.966;4.842;2023-03-14T12:04:49;6.40;;;2.13;;
9884;SDS011;4981;50.966;4.842;2023-03-14T12:07:21;4.33;;;2.27;;
9884;SDS011;4981;50.966;4.842;2023-03-14T12:09:50;3.17;;;1.93;;
9884;SDS011;4981;50.966;4.842;2023-03-14T12:12:18;5.07;;;3.10;;
9884;SDS011;4981;50.966;4.842;2023-03-14T12:14:52;4.30;;;1.70;;
9884;SDS011;4981;50.966;4.842;2023-03-14T12:17:21;9.47;;;2.40;;
9884;SDS011;4981;50.966;4.842;2023-03-14T12:20:00;4.10;;;1.80;;
9884;SDS011;4981;50.966;4.842;2023-03-14T12:22:31;4.17;;;1.50;;
9884;SDS011;4981;50.966;4.842;2023-03-14T12:25:06;8.23;;;3.30;;
9884;SDS011;4981;50.966;4.842;2023-03-14T12:27:43;5.67;;;1.23;;
9884;SDS011;4981;50.966;4.842;2023-03-14T12:30:15;10.67;;;1.30;;
9884;SDS011;4981;50.966;4.842;2023-03-14T12:35:37;13.47;;;1.27;;
9884;SDS011;4981;50.966;4.842;2023-03-14T12:38:06;7.27;;;1.73;;
9884;SDS011;4981;50.966;4.842;2023-03-14T12:40:37;11.47;;;1.30;;
9884;SDS011;4981;50.966;4.842;2023-03-14T12:43:20;9.73;;;1.60;;
9884;SDS011;4981;50.966;4.842;2023-03-14T12:46:07;12.60;;;1.80;;
9884;SDS011;4981;50.966;4.842;2023-03-14T12:48:36;6.67;;;1.40;;
9884;SDS011;4981;50.966;4.842;2023-03-14T12:51:11;10.97;;;2.17;;
9884;SDS011;4981;50.966;4.842;2023-03-14T12:56:24;11.57;;;2.00;;
9884;SDS011;4981;50.966;4.842;2023-03-14T12:59:05;16.73;;;2.53;;
9884;SDS011;4981;50.966;4.842;2023-03-14T13:01:33;10.93;;;1.83;;
9884;SDS011;4981;50.966;4.842;2023-03-14T13:04:03;13.83;;;2.63;;
9884;SDS011;4981;50.966;4.842;2023-03-14T13:12:13;16.10;;;2.23;;
9884;SDS011;4981;50.966;4.842;2023-03-14T13:14:43;16.73;;;2.90;;
9884;SDS011;4981;50.966;4.842;2023-03-14T13:17:11;14.93;;;1.97;;
9884;SDS011;4981;50.966;4.842;2023-03-14T13:19:39;15.33;;;1.97;;
9884;SDS011;4981;50.966;4.842;2023-03-14T13:22:13;12.73;;;2.27;;
9884;SDS011;4981;50.966;4.842;2023-03-14T13:24:42;12.93;;;2.37;;
9884;SDS011;4981;50.966;4.842;2023-03-14T13:27:16;12.30;;;2.60;;
9884;SDS011;4981;50.966;4.842;2023-03-14T13:29:45;13.37;;;1.93;;
9884;SDS011;4981;50.966;4.842;2023-03-14T13:32:16;16.47;;;2.40;;
9884;SDS011;4981;50.966;4.842;2023-03-14T13:34:44;7.10;;;2.10;;
9884;SDS011;4981;50.966;4.842;2023-03-14T13:37:16;14.13;;;2.27;;
9884;SDS011;4981;50.966;4.842;2023-03-14T13:39:48;11.30;;;2.33;;
9884;SDS011;4981;50.966;4.842;2023-03-14T13:42:17;16.00;;;2.53;;
9884;SDS011;4981;50.966;4.842;2023-03-14T13:44:45;23.90;;;3.10;;
9884;SDS011;4981;50.966;4.842;2023-03-14T13:47:14;8.80;;;2.07;;
9884;SDS011;4981;50.966;4.842;2023-03-14T13:49:42;17.30;;;2.87;;
9884;SDS011;4981;50.966;4.842;2023-03-14T13:52:23;21.80;;;6.70;;
9884;SDS011;4981;50.966;4.842;2023-03-14T13:54:52;16.30;;;3.33;;
9884;SDS011;4981;50.966;4.842;2023-03-14T13:57:22;18.00;;;3.80;;
9884;SDS011;4981;50.966;4.842;2023-03-14T14:00:00;9.50;;;4.00;;
9884;SDS011;4981;50.966;4.842;2023-03-14T14:02:31;17.73;;;3.63;;
9884;SDS011;4981;50.966;4.842;2023-03-14T14:04:59;17.47;;;2.73;;
9884;SDS011;4981;50.966;4.842;2023-03-14T14:07:26;14.33;;;3.03;;
9884;SDS011;4981;50.966;4.842;2023-03-14T14:09:55;17.07;;;2.37;;
9884;SDS011;4981;50.966;4.842;2023-03-14T14:12:25;15.37;;;3.43;;
9884;SDS011;4981;50.966;4.842;2023-03-14T14:14:55;13.57;;;3.03;;
9884;SDS011;4981;50.966;4.842;2023-03-14T14:17:24;17.70;;;3.27;;
9884;SDS011;4981;50.966;4.842;2023-03-14T14:19:53;18.17;;;3.33;;
9884;SDS011;4981;50.966;4.842;2023-03-14T14:22:21;20.40;;;3.27;;
9884;SDS011;4981;50.966;4.842;2023-03-14T14:24:49;20.07;;;3.80;;
9884;SDS011;4981;50.966;4.842;2023-03-14T14:27:18;25.43;;;7.60;;
9884;SDS011;4981;50.966;4.842;2023-03-14T14:29:57;15.87;;;3.60;;
9884;SDS011;4981;50.966;4.842;2023-03-14T14:32:26;18.00;;;3.10;;
9884;SDS011;4981;50.966;4.842;2023-03-14T14:34:57;17.90;;;3.40;;
9884;SDS011;4981;50.966;4.842;2023-03-14T14:37:25;21.37;;;3.40;;
9884;SDS011;4981;50.966;4.842;2023-03-14T14:39:53;17.60;;;3.60;;
9884;SDS011;4981;50.966;4.842;2023-03-14T14:42:23;21.87;;;3.37;;
9884;SDS011;4981;50.966;4.842;2023-03-14T14:44:52;15.80;;;2.63;;
9884;SDS011;4981;50.966;4.842;2023-03-14T14:47:22;14.70;;;3.30;;
9884;SDS011;4981;50.966;4.842;2023-03-14T14:49:50;15.40;;;2.50;;
9884;SDS011;4981;50.966;4.842;2023-03-14T14:52:19;21.27;;;3.90;;
9884;SDS011;4981;50.966;4.842;2023-03-14T14:54:47;14.37;;;3.10;;
9884;SDS011;4981;50.966;4.842;2023-03-14T14:57:17;20.57;;;3.07;;
9884;SDS011;4981;50.966;4.842;2023-03-14T14:59:47;10.43;;;2.40;;
9884;SDS011;4981;50.966;4.842;2023-03-14T15:02:30;8.23;;;1.80;;
9884;SDS011;4981;50.966;4.842;2023-03-14T15:04:59;8.60;;;1.60;;
9884;SDS011;4981;50.966;4.842;2023-03-14T15:07:27;12.17;;;2.00;;
9884;SDS011;4981;50.966;4.842;2023-03-14T15:09:54;8.53;;;1.47;;
9884;SDS011;4981;50.966;4.842;2023-03-14T15:12:22;4.87;;;1.13;;
9884;SDS011;4981;50.966;4.842;2023-03-14T15:14:50;11.73;;;2.10;;
9884;SDS011;4981;50.966;4.842;2023-03-14T15:17:17;8.47;;;1.60;;
9884;SDS011;4981;50.966;4.842;2023-03-14T15:19:46;4.93;;;1.07;;
9884;SDS011;4981;50.966;4.842;2023-03-14T15:22:14;7.00;;;1.30;;
9884;SDS011;4981;50.966;4.842;2023-03-14T15:24:42;6.53;;;1.10;;
9884;SDS011;4981;50.966;4.842;2023-03-14T15:27:11;6.33;;;1.13;;
9884;SDS011;4981;50.966;4.842;2023-03-14T15:29:40;4.93;;;1.07;;
9884;SDS011;4981;50.966;4.842;2023-03-14T15:32:09;2.30;;;0.80;;
9884;SDS011;4981;50.966;4.842;2023-03-14T15:34:37;5.67;;;1.60;;